sensor_id;sensor_type;location;lat;lon;timestamp;pressure;altitude;pressure_sealevel;temperature;humidity
45763;BME280;37512;52.408;13.356;2023-02-22T00:04:03;101244.31;;;7.17;100.00
45763;BME280;37512;52.408;13.356;2023-02-22T00:08:06;101243.47;;;7.25;100.00
45763;BME280;37512;52.408;13.356;2023-02-22T00:12:09;101242.84;;;7.20;100.00
45763;BME280;37512;52.408;13.356;2023-02-22T00:16:16;101233.78;;;6.93;100.00
45763;BME280;37512;52.408;13.356;2023-02-22T00:20:18;101236.88;;;7.00;100.00
45763;BME280;37512;52.408;13.356;2023-02-22T00:24:20;101239.13;;;7.07;100.00
45763;BME280;37512;52.408;13.356;2023-02-22T00:28:24;101234.91;;;7.09;100.00
45763;BME280;37512;52.408;13.356;2023-02-22T00:32:26;101238.63;;;7.13;100.00
45763;BME280;37512;52.408;13.356;2023-02-22T00:36:27;101234.72;;;7.15;100.00
45763;BME280;37512;52.408;13.356;2023-02-22T00:40:32;101243.03;;;7.06;100.00
45763;BME280;37512;52.408;13.356;2023-02-22T00:44:33;101243.69;;;7.03;100.00
45763;BME280;37512;52.408;13.356;2023-02-22T00:48:35;101237.81;;;7.04;100.00
45763;BME280;37512;52.408;13.356;2023-02-22T00:52:37;101244.47;;;7.12;100.00
45763;BME280;37512;52.408;13.356;2023-02-22T00:56:38;101237.19;;;7.07;100.00
45763;BME280;37512;52.408;13.356;2023-02-22T01:00:41;101238.50;;;6.93;100.00
45763;BME280;37512;52.408;13.356;2023-02-22T01:04:43;101242.41;;;6.91;100.00
45763;BME280;37512;52.408;13.356;2023-02-22T01:08:46;101244.22;;;6.79;100.00
45763;BME280;37512;52.408;13.356;2023-02-22T01:12:48;101236.59;;;6.76;100.00
45763;BME280;37512;52.408;13.356;2023-02-22T01:16:50;101232.06;;;6.71;100.00
45763;BME280;37512;52.408;13.356;2023-02-22T01:20:51;101229.94;;;6.77;100.00
45763;BME280;37512;52.408;13.356;2023-02-22T01:24:53;101227.22;;;6.59;100.00
45763;BME280;37512;52.408;13.356;2023-02-22T01:28:55;101230.44;;;6.35;100.00
45763;BME280;37512;52.408;13.356;2023-02-22T01:32:57;101236.28;;;6.42;100.00
45763;BME280;37512;52.408;13.356;2023-02-22T01:36:59;101232.06;;;6.45;100.00
45763;BME280;37512;52.408;13.356;2023-02-22T01:41:03;101225.41;;;6.46;100.00
45763;BME280;37512;52.408;13.356;2023-02-22T01:49:39;101222.00;;;6.32;100.00
45763;BME280;37512;52.408;13.356;2023-02-22T01:53:47;101209.69;;;6.20;100.00
45763;BME280;37512;52.408;13.356;2023-02-22T01:57:51;101216.63;;;6.18;100.00
45763;BME280;37512;52.408;13.356;2023-02-22T02:01:53;101219.41;;;6.09;100.00
45763;BME280;37512;52.408;13.356;2023-02-22T02:05:57;101216.47;;;6.05;100.00
45763;BME280;37512;52.408;13.356;2023-02-22T02:10:03;101212.75;;;6.19;100.00
45763;BME280;37512;52.408;13.356;2023-02-22T02:14:07;101217.97;;;6.20;100.00
45763;BME280;37512;52.408;13.356;2023-02-22T02:18:11;101213.56;;;6.19;100.00
45763;BME280;37512;52.408;13.356;2023-02-22T02:22:28;101217.78;;;6.08;100.00
45763;BME280;37512;52.408;13.356;2023-02-22T02:26:48;101212.56;;;6.06;100.00
45763;BME280;37512;52.408;13.356;2023-02-22T02:35:33;101207.38;;;5.96;100.00
45763;BME280;37512;52.408;13.356;2023-02-22T02:43:48;101206.22;;;5.97;100.00
45763;BME280;37512;52.408;13.356;2023-02-22T02:47:54;101201.66;;;5.93;100.00
45763;BME280;37512;52.408;13.356;2023-02-22T02:51:59;101200.34;;;5.90;100.00
45763;BME280;37512;52.408;13.356;2023-02-22T02:56:03;101210.25;;;5.91;100.00
45763;BME280;37512;52.408;13.356;2023-02-22T03:00:06;101203.78;;;5.87;100.00
45763;BME280;37512;52.408;13.356;2023-02-22T03:04:40;101209.91;;;5.93;100.00
45763;BME280;37512;52.408;13.356;2023-02-22T03:13:24;101204.94;;;5.95;100.00
45763;BME280;37512;52.408;13.356;2023-02-22T03:22:01;101198.31;;;6.04;100.00
45763;BME280;37512;52.408;13.356;2023-02-22T03:26:20;101192.66;;;6.10;100.00
45763;BME280;37512;52.408;13.356;2023-02-22T03:30:29;101195.41;;;6.01;100.00
45763;BME280;37512;52.408;13.356;2023-02-22T03:34:36;101190.06;;;6.04;100.00
45763;BME280;37512;52.408;13.356;2023-02-22T03:38:40;101197.34;;;6.00;100.00
45763;BME280;37512;52.408;13.356;2023-02-22T03:42:49;101195.56;;;6.04;100.00
45763;BME280;37512;52.408;13.356;2023-02-22T03:46:54;101204.16;;;6.12;100.00
45763;BME280;37512;52.408;13.356;2023-02-22T03:50:57;101205.44;;;6.05;100.00
45763;BME280;37512;52.408;13.356;2023-02-22T03:54:59;101205.78;;;6.13;100.00
45763;BME280;37512;52.408;13.356;2023-02-22T03:59:06;101200.75;;;6.23;100.00
45763;BME280;37512;52.408;13.356;2023-02-22T04:03:08;101194.75;;;6.21;100.00
45763;BME280;37512;52.408;13.356;2023-02-22T04:07:10;101187.97;;;6.19;100.00
45763;BME280;37512;52.408;13.356;2023-02-22T04:11:11;101194.44;;;6.23;100.00
45763;BME280;37512;52.408;13.356;2023-02-22T04:15:16;101194.94;;;6.16;100.00
45763;BME280;37512;52.408;13.356;2023-02-22T04:19:17;101191.81;;;6.18;100.00
45763;BME280;37512;52.408;13.356;2023-02-22T04:23:19;101202.84;;;6.18;100.00
45763;BME280;37512;52.408;13.356;2023-02-22T04:27:21;101204.16;;;6.12;100.00
45763;BME280;37512;52.408;13.356;2023-02-22T04:31:22;101191.34;;;6.16;100.00
45763;BME280;37512;52.408;13.356;2023-02-22T04:35:24;101197.81;;;6.11;100.00
45763;BME280;37512;52.408;13.356;2023-02-22T04:39:25;101201.91;;;6.14;100.00
45763;BME280;37512;52.408;13.356;2023-02-22T04:43:27;101193.97;;;6.21;100.00
45763;BME280;37512;52.408;13.356;2023-02-22T04:47:28;101192.63;;;6.27;100.00
45763;BME280;37512;52.408;13.356;2023-02-22T04:51:30;101187.28;;;6.22;100.00
45763;BME280;37512;52.408;13.356;2023-02-22T04:55:31;101182.59;;;6.31;100.00
45763;BME280;37512;52.408;13.356;2023-02-22T04:59:34;101193.63;;;6.31;100.00
45763;BME280;37512;52.408;13.356;2023-02-22T05:03:38;101187.00;;;6.32;100.00
45763;BME280;37512;52.408;13.356;2023-02-22T05:07:40;101189.56;;;6.37;100.00
45763;BME280;37512;52.408;13.356;2023-02-22T05:11:42;101185.34;;;6.31;100.00
45763;BME280;37512;52.408;13.356;2023-02-22T05:15:44;101182.28;;;6.41;100.00
45763;BME280;37512;52.408;13.356;2023-02-22T05:19:45;101180.63;;;6.40;100.00
45763;BME280;37512;52.408;13.356;2023-02-22T05:23:48;101174.97;;;6.45;100.00
45763;BME280;37512;52.408;13.356;2023-02-22T05:27:54;101174.63;;;6.47;100.00
45763;BME280;37512;52.408;13.356;2023-02-22T05:31:56;101174.31;;;6.48;100.00
45763;BME280;37512;52.408;13.356;2023-02-22T05:35:58;101171.56;;;6.48;100.00
45763;BME280;37512;52.408;13.356;2023-02-22T05:40:00;101176.91;;;6.54;100.00
45763;BME280;37512;52.408;13.356;2023-02-22T05:44:01;101179.66;;;6.54;100.00
45763;BME280;37512;52.408;13.356;2023-02-22T05:48:03;101179.66;;;6.54;100.00
45763;BME280;37512;52.408;13.356;2023-02-22T05:52:05;101180.31;;;6.51;100.00
45763;BME280;37512;52.408;13.356;2023-02-22T05:56:07;101185.03;;;6.50;100.00
45763;BME280;37512;52.408;13.356;2023-02-22T06:00:09;101182.91;;;6.56;100.00
45763;BME280;37512;52.408;13.356;2023-02-22T06:04:11;101187.63;;;6.64;100.00
45763;BME280;37512;52.408;13.356;2023-02-22T06:08:13;101195.09;;;6.55;100.00
45763;BME280;37512;52.408;13.356;2023-02-22T06:12:14;101205.59;;;6.61;100.00
45763;BME280;37512;52.408;13.356;2023-02-22T06:16:16;101200.59;;;6.55;100.00
45763;BME280;37512;52.408;13.356;2023-02-22T06:20:21;101204.16;;;6.64;100.00
45763;BME280;37512;52.408;13.356;2023-02-22T06:24:23;101200.09;;;6.61;100.00
45763;BME280;37512;52.408;13.356;2023-02-22T06:28:24;101201.06;;;6.57;100.00
45763;BME280;37512;52.408;13.356;2023-02-22T06:32:27;101205.94;;;6.60;100.00
45763;BME280;37512;52.408;13.356;2023-02-22T06:36:28;101198.16;;;6.70;100.00
45763;BME280;37512;52.408;13.356;2023-02-22T06:40:30;101209.50;;;6.52;100.00
45763;BME280;37512;52.408;13.356;2023-02-22T06:44:31;101214.88;;;6.39;100.00
45763;BME280;37512;52.408;13.356;2023-02-22T06:48:36;101217.59;;;6.65;100.00
45763;BME280;37512;52.408;13.356;2023-02-22T06:52:41;101219.72;;;6.60;100.00
45763;BME280;37512;52.408;13.356;2023-02-22T06:56:43;101228.00;;;6.51;100.00
45763;BME280;37512;52.408;13.356;2023-02-22T07:00:45;101227.34;;;6.80;100.00
45763;BME280;37512;52.408;13.356;2023-02-22T07:04:46;101232.19;;;6.92;100.00
45763;BME280;37512;52.408;13.356;2023-02-22T07:08:48;101231.19;;;6.97;100.00
45763;BME280;37512;52.408;13.356;2023-02-22T07:12:50;101240.75;;;7.08;100.00
45763;BME280;37512;52.408;13.356;2023-02-22T07:16:52;101236.03;;;7.08;100.00
45763;BME280;37512;52.408;13.356;2023-02-22T07:20:54;101238.78;;;7.17;100.00
45763;BME280;37512;52.408;13.356;2023-02-22T07:24:56;101229.34;;;7.18;100.00
45763;BME280;37512;52.408;13.356;2023-02-22T07:28:57;101235.19;;;7.25;100.00
45763;BME280;37512;52.408;13.356;2023-02-22T07:33:00;101236.47;;;7.28;100.00
45763;BME280;37512;52.408;13.356;2023-02-22T07:37:02;101237.91;;;7.34;100.00
45763;BME280;37512;52.408;13.356;2023-02-22T07:41:04;101234.34;;;7.33;100.00
45763;BME280;37512;52.408;13.356;2023-02-22T07:45:05;101227.50;;;7.40;100.00
45763;BME280;37512;52.408;13.356;2023-02-22T07:49:07;101233.50;;;7.42;100.00
45763;BME280;37512;52.408;13.356;2023-02-22T07:53:15;101222.81;;;7.31;100.00
45763;BME280;37512;52.408;13.356;2023-02-22T07:57:18;101229.78;;;7.38;100.00
45763;BME280;37512;52.408;13.356;2023-02-22T08:01:19;101239.13;;;7.54;100.00
45763;BME280;37512;52.408;13.356;2023-02-22T08:05:23;101233.41;;;7.59;100.00
45763;BME280;37512;52.408;13.356;2023-02-22T08:09:25;101234.66;;;7.70;100.00
45763;BME280;37512;52.408;13.356;2023-02-22T08:13:27;101235.34;;;7.67;100.00
45763;BME280;37512;52.408;13.356;2023-02-22T08:17:29;101235.44;;;7.80;100.00
45763;BME280;37512;52.408;13.356;2023-02-22T08:21:30;101239.63;;;7.86;100.00
45763;BME280;37512;52.408;13.356;2023-02-22T08:25:32;101242.59;;;7.81;100.00
45763;BME280;37512;52.408;13.356;2023-02-22T08:29:33;101238.63;;;7.90;100.00
45763;BME280;37512;52.408;13.356;2023-02-22T08:33:35;101239.91;;;7.93;100.00
45763;BME280;37512;52.408;13.356;2023-02-22T08:37:41;101235.59;;;7.83;100.00
45763;BME280;37512;52.408;13.356;2023-02-22T08:41:42;101241.59;;;7.85;100.00
45763;BME280;37512;52.408;13.356;2023-02-22T08:45:44;101236.88;;;7.86;100.00
45763;BME280;37512;52.408;13.356;2023-02-22T08:49:46;101231.63;;;7.93;100.00
45763;BME280;37512;52.408;13.356;2023-02-22T08:53:48;101238.94;;;7.89;100.00
45763;BME280;37512;52.408;13.356;2023-02-22T08:57:49;101234.09;;;7.86;100.00
45763;BME280;37512;52.408;13.356;2023-02-22T09:01:51;101233.41;;;7.89;100.00
45763;BME280;37512;52.408;13.356;2023-02-22T09:05:52;101233.78;;;7.87;100.00
45763;BME280;37512;52.408;13.356;2023-02-22T09:09:54;101235.75;;;7.87;100.00
45763;BME280;37512;52.408;13.356;2023-02-22T09:13:56;101224.69;;;7.87;100.00
45763;BME280;37512;52.408;13.356;2023-02-22T09:17:58;101232.28;;;7.90;100.00
45763;BME280;37512;52.408;13.356;2023-02-22T09:21:59;101234.06;;;8.15;100.00
45763;BME280;37512;52.408;13.356;2023-02-22T09:26:01;101222.22;;;8.15;100.00
45763;BME280;37512;52.408;13.356;2023-02-22T09:30:03;101225.72;;;8.24;100.00
45763;BME280;37512;52.408;13.356;2023-02-22T09:34:06;101229.50;;;8.20;100.00
45763;BME280;37512;52.408;13.356;2023-02-22T09:38:19;101229.44;;;8.28;100.00
45763;BME280;37512;52.408;13.356;2023-02-22T09:42:39;101224.50;;;8.55;100.00
45763;BME280;37512;52.408;13.356;2023-02-22T09:46:42;101212.97;;;8.74;100.00
45763;BME280;37512;52.408;13.356;2023-02-22T09:50:46;101222.91;;;8.54;100.00
45763;BME280;37512;52.408;13.356;2023-02-22T09:59:12;101207.06;;;8.75;100.00
45763;BME280;37512;52.408;13.356;2023-02-22T10:07:58;101210.47;;;8.81;100.00
45763;BME280;37512;52.408;13.356;2023-02-22T10:25:13;101198.03;;;8.99;100.00
45763;BME280;37512;52.408;13.356;2023-02-22T10:29:29;101205.19;;;9.00;100.00
45763;BME280;37512;52.408;13.356;2023-02-22T10:33:38;101198.53;;;9.02;100.00
45763;BME280;37512;52.408;13.356;2023-02-22T10:37:43;101193.63;;;8.86;100.00
45763;BME280;37512;52.408;13.356;2023-02-22T10:41:50;101198.53;;;9.02;100.00
45763;BME280;37512;52.408;13.356;2023-02-22T10:45:57;101186.84;;;8.96;100.00
45763;BME280;37512;52.408;13.356;2023-02-22T10:50:01;101186.50;;;9.10;100.00
45763;BME280;37512;52.408;13.356;2023-02-22T10:58:14;101188.56;;;9.00;100.00
45763;BME280;37512;52.408;13.356;2023-02-22T11:02:23;101192.03;;;8.85;100.00
45763;BME280;37512;52.408;13.356;2023-02-22T11:06:28;101184.91;;;9.09;100.00
45763;BME280;37512;52.408;13.356;2023-02-22T11:10:30;101186.16;;;8.99;100.00
45763;BME280;37512;52.408;13.356;2023-02-22T11:14:32;101187.53;;;9.05;100.00
45763;BME280;37512;52.408;13.356;2023-02-22T11:18:34;101184.69;;;9.14;100.00
45763;BME280;37512;52.408;13.356;2023-02-22T11:22:39;101177.06;;;9.11;100.00
45763;BME280;37512;52.408;13.356;2023-02-22T11:26:44;101182.50;;;9.19;100.00
45763;BME280;37512;52.408;13.356;2023-02-22T11:30:50;101177.41;;;9.09;100.00
45763;BME280;37512;52.408;13.356;2023-02-22T11:39:31;101162.09;;;9.24;100.00
45763;BME280;37512;52.408;13.356;2023-02-22T11:43:35;101166.25;;;9.42;100.00
45763;BME280;37512;52.408;13.356;2023-02-22T11:47:56;101152.41;;;9.42;100.00
45763;BME280;37512;52.408;13.356;2023-02-22T11:52:36;101144.06;;;9.18;100.00
45763;BME280;37512;52.408;13.356;2023-02-22T11:56:35;101145.38;;;9.33;100.00
45763;BME280;37512;52.408;13.356;2023-02-22T12:05:09;101141.31;;;9.42;100.00
45763;BME280;37512;52.408;13.356;2023-02-22T12:22:51;101129.06;;;9.19;100.00
45763;BME280;37512;52.408;13.356;2023-02-22T12:27:01;101127.94;;;9.20;100.00
45763;BME280;37512;52.408;13.356;2023-02-22T12:31:18;101130.47;;;9.50;100.00
45763;BME280;37512;52.408;13.356;2023-02-22T12:35:30;101134.97;;;9.30;100.00
45763;BME280;37512;52.408;13.356;2023-02-22T12:39:47;101134.28;;;9.08;100.00
45763;BME280;37512;52.408;13.356;2023-02-22T12:44:13;101130.94;;;9.15;100.00
45763;BME280;37512;52.408;13.356;2023-02-22T12:48:44;101130.34;;;9.21;100.00
45763;BME280;37512;52.408;13.356;2023-02-22T12:53:07;101132.31;;;9.09;100.00
45763;BME280;37512;52.408;13.356;2023-02-22T12:57:19;101119.81;;;9.03;100.00
45763;BME280;37512;52.408;13.356;2023-02-22T13:01:27;101124.31;;;8.95;100.00
45763;BME280;37512;52.408;13.356;2023-02-22T13:05:35;101123.53;;;9.07;100.00
45763;BME280;37512;52.408;13.356;2023-02-22T13:14:43;101125.81;;;9.05;100.00
45763;BME280;37512;52.408;13.356;2023-02-22T13:18:31;101108.28;;;9.00;100.00
45763;BME280;37512;52.408;13.356;2023-02-22T13:22:51;101110.72;;;9.27;100.00
45763;BME280;37512;52.408;13.356;2023-02-22T13:27:00;101108.53;;;9.32;100.00
45763;BME280;37512;52.408;13.356;2023-02-22T13:39:55;101099.53;;;9.11;100.00
45763;BME280;37512;52.408;13.356;2023-02-22T13:48:33;101101.16;;;9.24;100.00
45763;BME280;37512;52.408;13.356;2023-02-22T13:52:40;101097.00;;;9.18;100.00
45763;BME280;37512;52.408;13.356;2023-02-22T13:56:44;101092.16;;;9.27;100.00
45763;BME280;37512;52.408;13.356;2023-02-22T14:00:57;101101.72;;;9.30;100.00
45763;BME280;37512;52.408;13.356;2023-02-22T14:04:59;101095.13;;;9.34;100.00
45763;BME280;37512;52.408;13.356;2023-02-22T14:09:07;101091.94;;;9.08;100.00
45763;BME280;37512;52.408;13.356;2023-02-22T14:13:09;101092.75;;;9.33;100.00
45763;BME280;37512;52.408;13.356;2023-02-22T14:17:24;101087.75;;;9.38;100.00
45763;BME280;37512;52.408;13.356;2023-02-22T14:21:28;101081.88;;;9.40;100.00
45763;BME280;37512;52.408;13.356;2023-02-22T14:29:34;101078.28;;;9.39;100.00
45763;BME280;37512;52.408;13.356;2023-02-22T14:37:56;101067.47;;;9.22;100.00
45763;BME280;37512;52.408;13.356;2023-02-22T14:42:23;101067.56;;;9.38;100.00
45763;BME280;37512;52.408;13.356;2023-02-22T14:46:32;101067.22;;;9.27;100.00
45763;BME280;37512;52.408;13.356;2023-02-22T14:54:52;101064.91;;;9.29;100.00
45763;BME280;37512;52.408;13.356;2023-02-22T14:59:12;101053.03;;;9.29;100.00
45763;BME280;37512;52.408;13.356;2023-02-22T15:07:30;101057.31;;;9.26;100.00
45763;BME280;37512;52.408;13.356;2023-02-22T15:11:36;101050.13;;;9.25;100.00
45763;BME280;37512;52.408;13.356;2023-02-22T15:15:40;101056.63;;;9.17;100.00
45763;BME280;37512;52.408;13.356;2023-02-22T15:19:50;101046.34;;;9.17;100.00
45763;BME280;37512;52.408;13.356;2023-02-22T15:24:02;101043.78;;;9.25;100.00
45763;BME280;37512;52.408;13.356;2023-02-22T15:28:05;101039.19;;;9.16;100.00
45763;BME280;37512;52.408;13.356;2023-02-22T15:32:19;101038.72;;;9.02;100.00
45763;BME280;37512;52.408;13.356;2023-02-22T15:36:29;101040.13;;;9.08;100.00
45763;BME280;37512;52.408;13.356;2023-02-22T15:40:32;101040.09;;;9.20;100.00
45763;BME280;37512;52.408;13.356;2023-02-22T15:44:36;101041.59;;;9.18;100.00
45763;BME280;37512;52.408;13.356;2023-02-22T15:48:37;101044.03;;;9.19;100.00
45763;BME280;37512;52.408;13.356;2023-02-22T15:53:16;101041.38;;;9.11;100.00
45763;BME280;37512;52.408;13.356;2023-02-22T15:57:24;101046.94;;;9.11;100.00
45763;BME280;37512;52.408;13.356;2023-02-22T16:01:27;101035.84;;;8.98;100.00
45763;BME280;37512;52.408;13.356;2023-02-22T16:05:37;101031.91;;;9.12;100.00
45763;BME280;37512;52.408;13.356;2023-02-22T16:09:45;101032.63;;;8.84;100.00
45763;BME280;37512;52.408;13.356;2023-02-22T16:13:52;101027.56;;;8.74;100.00
45763;BME280;37512;52.408;13.356;2023-02-22T16:17:54;101034.22;;;8.73;100.00
45763;BME280;37512;52.408;13.356;2023-02-22T16:22:05;101024.09;;;8.65;100.00
45763;BME280;37512;52.408;13.356;2023-02-22T16:30:37;101016.50;;;8.28;100.00
45763;BME280;37512;52.408;13.356;2023-02-22T16:34:40;101025.59;;;8.29;100.00
45763;BME280;37512;52.408;13.356;2023-02-22T16:38:41;101024.22;;;7.89;100.00
45763;BME280;37512;52.408;13.356;2023-02-22T16:42:45;101022.34;;;8.14;100.00
45763;BME280;37512;52.408;13.356;2023-02-22T16:46:47;101025.41;;;8.01;100.00
45763;BME280;37512;52.408;13.356;2023-02-22T16:50:49;101032.00;;;8.08;100.00
45763;BME280;37512;52.408;13.356;2023-02-22T16:54:51;101023.69;;;8.08;100.00
45763;BME280;37512;52.408;13.356;2023-02-22T16:58:53;101032.25;;;8.15;100.00
45763;BME280;37512;52.408;13.356;2023-02-22T17:02:56;101025.03;;;8.02;100.00
45763;BME280;37512;52.408;13.356;2023-02-22T17:06:58;101028.97;;;8.01;100.00
45763;BME280;37512;52.408;13.356;2023-02-22T17:11:00;101015.81;;;7.98;100.00
45763;BME280;37512;52.408;13.356;2023-02-22T17:15:01;101017.75;;;7.85;100.00
45763;BME280;37512;52.408;13.356;2023-02-22T17:19:08;101027.25;;;7.75;100.00
45763;BME280;37512;52.408;13.356;2023-02-22T17:23:11;101022.41;;;7.72;100.00
45763;BME280;37512;52.408;13.356;2023-02-22T17:27:12;101019.84;;;7.67;100.00
45763;BME280;37512;52.408;13.356;2023-02-22T17:31:20;101017.28;;;7.62;100.00
45763;BME280;37512;52.408;13.356;2023-02-22T17:35:22;101011.88;;;7.66;100.00
45763;BME280;37512;52.408;13.356;2023-02-22T17:39:24;101023.19;;;7.73;100.00
45763;BME280;37512;52.408;13.356;2023-02-22T17:43:27;101016.22;;;7.75;100.00
45763;BME280;37512;52.408;13.356;2023-02-22T17:47:29;101023.75;;;7.66;100.00
45763;BME280;37512;52.408;13.356;2023-02-22T17:51:31;101014.84;;;7.61;100.00
45763;BME280;37512;52.408;13.356;2023-02-22T17:55:32;101008.81;;;7.46;100.00
45763;BME280;37512;52.408;13.356;2023-02-22T17:59:36;101013.75;;;7.32;100.00
45763;BME280;37512;52.408;13.356;2023-02-22T18:03:40;101018.16;;;7.33;100.00
45763;BME280;37512;52.408;13.356;2023-02-22T18:07:43;101008.06;;;7.37;100.00
45763;BME280;37512;52.408;13.356;2023-02-22T18:11:44;101011.94;;;7.15;100.00
45763;BME280;37512;52.408;13.356;2023-02-22T18:15:46;101008.38;;;7.15;100.00
45763;BME280;37512;52.408;13.356;2023-02-22T18:19:48;101002.84;;;7.15;100.00
45763;BME280;37512;52.408;13.356;2023-02-22T18:23:50;100996.06;;;7.12;100.00
45763;BME280;37512;52.408;13.356;2023-02-22T18:27:52;101004.34;;;7.12;100.00
45763;BME280;37512;52.408;13.356;2023-02-22T18:31:55;101007.69;;;7.18;100.00
45763;BME280;37512;52.408;13.356;2023-02-22T18:35:56;101010.19;;;7.31;100.00
45763;BME280;37512;52.408;13.356;2023-02-22T18:39:59;101009.03;;;7.11;100.00
45763;BME280;37512;52.408;13.356;2023-02-22T18:44:01;101014.94;;;7.01;100.00
45763;BME280;37512;52.408;13.356;2023-02-22T18:48:04;101002.31;;;7.00;100.00
45763;BME280;37512;52.408;13.356;2023-02-22T18:52:05;101002.69;;;7.11;100.00
45763;BME280;37512;52.408;13.356;2023-02-22T18:56:11;101005.38;;;6.99;100.00
45763;BME280;37512;52.408;13.356;2023-02-22T19:00:17;101004.97;;;7.09;100.00
45763;BME280;37512;52.408;13.356;2023-02-22T19:04:19;100992.59;;;6.94;100.00
45763;BME280;37512;52.408;13.356;2023-02-22T19:08:21;100999.31;;;6.84;100.00
45763;BME280;37512;52.408;13.356;2023-02-22T19:12:23;100985.78;;;6.91;100.00
45763;BME280;37512;52.408;13.356;2023-02-22T19:16:27;100990.69;;;6.86;100.00
45763;BME280;37512;52.408;13.356;2023-02-22T19:20:28;101003.13;;;6.62;100.00
45763;BME280;37512;52.408;13.356;2023-02-22T19:24:33;100998.81;;;6.53;100.00
45763;BME280;37512;52.408;13.356;2023-02-22T19:28:35;101006.44;;;6.47;100.00
45763;BME280;37512;52.408;13.356;2023-02-22T19:32:36;100996.97;;;6.57;100.00
45763;BME280;37512;52.408;13.356;2023-02-22T19:36:43;101002.81;;;6.64;100.00
45763;BME280;37512;52.408;13.356;2023-02-22T19:40:48;101003.19;;;6.45;100.00
45763;BME280;37512;52.408;13.356;2023-02-22T19:44:50;101001.59;;;6.44;100.00
45763;BME280;37512;52.408;13.356;2023-02-22T19:48:53;101001.69;;;6.56;100.00
45763;BME280;37512;52.408;13.356;2023-02-22T19:52:58;100996.41;;;6.34;100.00
45763;BME280;37512;52.408;13.356;2023-02-22T19:56:59;101000.00;;;6.34;100.00
45763;BME280;37512;52.408;13.356;2023-02-22T20:01:23;100998.97;;;6.47;100.00
45763;BME280;37512;52.408;13.356;2023-02-22T20:05:23;100996.28;;;6.30;100.00
45763;BME280;37512;52.408;13.356;2023-02-22T20:09:27;100993.72;;;6.16;100.00
45763;BME280;37512;52.408;13.356;2023-02-22T20:13:38;100985.97;;;6.10;100.00
45763;BME280;37512;52.408;13.356;2023-02-22T20:17:40;100992.63;;;6.00;100.00
45763;BME280;37512;52.408;13.356;2023-02-22T20:21:41;100991.63;;;6.13;100.00
45763;BME280;37512;52.408;13.356;2023-02-22T20:25:50;101000.22;;;6.12;100.00
45763;BME280;37512;52.408;13.356;2023-02-22T20:29:52;100992.28;;;6.01;100.00
45763;BME280;37512;52.408;13.356;2023-02-22T20:33:55;100995.22;;;6.05;100.00
45763;BME280;37512;52.408;13.356;2023-02-22T20:37:57;100991.16;;;5.94;100.00
45763;BME280;37512;52.408;13.356;2023-02-22T20:41:59;100988.56;;;5.97;100.00
45763;BME280;37512;52.408;13.356;2023-02-22T20:46:02;100984.03;;;6.01;100.00
45763;BME280;37512;52.408;13.356;2023-02-22T20:50:05;100975.44;;;6.03;100.00
45763;BME280;37512;52.408;13.356;2023-02-22T20:54:08;100976.91;;;5.83;100.00
45763;BME280;37512;52.408;13.356;2023-02-22T20:58:12;100982.28;;;5.79;100.00
45763;BME280;37512;52.408;13.356;2023-02-22T21:02:14;100982.28;;;5.79;100.00
45763;BME280;37512;52.408;13.356;2023-02-22T21:06:18;100982.75;;;5.64;100.00
45763;BME280;37512;52.408;13.356;2023-02-22T21:10:21;100985.47;;;5.81;100.00
45763;BME280;37512;52.408;13.356;2023-02-22T21:14:23;100992.31;;;5.66;100.00
45763;BME280;37512;52.408;13.356;2023-02-22T21:18:25;100991.34;;;5.54;100.00
45763;BME280;37512;52.408;13.356;2023-02-22T21:22:26;100981.47;;;5.61;100.00
45763;BME280;37512;52.408;13.356;2023-02-22T21:26:31;100977.25;;;5.38;100.00
45763;BME280;37512;52.408;13.356;2023-02-22T21:30:32;100975.97;;;5.18;100.00
45763;BME280;37512;52.408;13.356;2023-02-22T21:34:35;100981.47;;;5.44;100.00
45763;BME280;37512;52.408;13.356;2023-02-22T21:38:36;100970.78;;;5.42;100.00
45763;BME280;37512;52.408;13.356;2023-02-22T21:42:38;100970.94;;;5.46;100.00
45763;BME280;37512;52.408;13.356;2023-02-22T21:46:40;100967.69;;;5.27;100.00
45763;BME280;37512;52.408;13.356;2023-02-22T21:50:41;100967.06;;;5.38;100.00
45763;BME280;37512;52.408;13.356;2023-02-22T21:54:43;100966.09;;;5.26;100.00
45763;BME280;37512;52.408;13.356;2023-02-22T21:58:45;100957.81;;;5.17;100.00
45763;BME280;37512;52.408;13.356;2023-02-22T22:02:47;100964.63;;;5.37;100.00
45763;BME280;37512;52.408;13.356;2023-02-22T22:06:50;100957.03;;;5.25;100.00
45763;BME280;37512;52.408;13.356;2023-02-22T22:10:53;100946.97;;;5.03;100.00
45763;BME280;37512;52.408;13.356;2023-02-22T22:14:55;100954.75;;;5.18;100.00
45763;BME280;37512;52.408;13.356;2023-02-22T22:18:57;100955.84;;;4.91;100.00
45763;BME280;37512;52.408;13.356;2023-02-22T22:22:58;100948.56;;;5.13;100.00
45763;BME280;37512;52.408;13.356;2023-02-22T22:27:00;100946.63;;;4.87;100.00
45763;BME280;37512;52.408;13.356;2023-02-22T22:31:04;100946.78;;;4.91;100.00
45763;BME280;37512;52.408;13.356;2023-02-22T22:35:06;100946.31;;;4.89;100.00
45763;BME280;37512;52.408;13.356;2023-02-22T22:39:14;100936.13;;;4.98;100.00
45763;BME280;37512;52.408;13.356;2023-02-22T22:43:16;100935.31;;;4.89;100.00
45763;BME280;37512;52.408;13.356;2023-02-22T22:47:19;100939.84;;;5.37;100.00
45763;BME280;37512;52.408;13.356;2023-02-22T22:51:20;100939.69;;;5.42;100.00
45763;BME280;37512;52.408;13.356;2023-02-22T22:55:22;100939.22;;;5.14;100.00